createdAt,value
2023-04-25T00:00:18.102Z,12.93
2023-04-25T00:01:18.253Z,12.97
2023-04-25T00:02:18.468Z,12.97
2023-04-25T00:03:18.759Z,13.01
2023-04-25T00:04:19.254Z,13.04
2023-04-25T00:05:19.055Z,13.04
2023-04-25T00:06:19.116Z,13.08
2023-04-25T00:07:19.288Z,13.09
2023-04-25T00:08:19.447Z,13.09
2023-04-25T00:09:19.634Z,13.12
2023-04-25T00:10:19.803Z,13.12
2023-04-25T00:11:19.989Z,13.15
2023-04-25T00:12:20.147Z,13.13
2023-04-25T00:13:20.321Z,13.15
2023-04-25T00:14:20.504Z,13.18
2023-04-25T00:15:20.676Z,13.18
2023-04-25T00:16:20.866Z,13.20
2023-04-25T00:17:21.041Z,13.20
2023-04-25T00:18:21.181Z,13.20
2023-04-25T00:19:21.360Z,13.20
2023-04-25T00:20:21.544Z,13.20
2023-04-25T00:21:21.704Z,13.22
2023-04-25T00:22:21.884Z,13.22
2023-04-25T00:23:22.059Z,13.25
2023-04-25T00:24:22.261Z,13.25
2023-04-25T00:25:22.431Z,13.27
2023-04-25T00:26:22.622Z,13.27
2023-04-25T00:27:22.765Z,13.27
2023-04-25T00:28:22.964Z,13.23
2023-04-25T00:29:23.130Z,13.27
2023-04-25T00:30:23.307Z,13.28
2023-04-25T00:31:23.538Z,13.30
2023-04-25T00:32:23.642Z,13.30
2023-04-25T00:33:23.814Z,13.28
2023-04-25T00:34:24.024Z,13.25
2023-04-25T00:35:24.176Z,13.28
2023-04-25T00:36:24.332Z,13.27
2023-04-25T00:37:24.495Z,13.31
2023-04-25T00:38:24.663Z,13.30
2023-04-25T00:39:24.861Z,13.28
2023-04-25T00:40:25.020Z,13.28
2023-04-25T00:41:25.182Z,13.28
2023-04-25T00:42:25.373Z,13.31
2023-04-25T00:43:25.536Z,13.31
2023-04-25T00:44:25.754Z,13.28
2023-04-25T00:45:25.884Z,13.28
2023-04-25T00:46:26.093Z,13.28
2023-04-25T00:47:26.310Z,13.30
2023-04-25T00:48:26.395Z,13.27
2023-04-25T00:49:26.566Z,13.27
2023-04-25T00:50:26.728Z,13.27
2023-04-25T00:51:26.899Z,13.28
2023-04-25T00:52:27.086Z,13.25
2023-04-25T00:53:27.264Z,13.23
2023-04-25T00:54:27.435Z,13.23
2023-04-25T00:55:27.607Z,13.22
2023-04-25T00:56:27.768Z,13.22
2023-04-25T00:57:27.935Z,13.23
2023-04-25T00:58:28.120Z,13.23
2023-04-25T00:59:28.274Z,13.22
2023-04-25T01:00:28.444Z,13.23
2023-04-25T01:01:28.645Z,13.27
2023-04-25T01:02:28.884Z,13.27
2023-04-25T01:03:29.057Z,13.27
2023-04-25T01:04:29.188Z,13.27
2023-04-25T01:05:29.315Z,13.30
2023-04-25T01:06:29.477Z,13.28
2023-04-25T01:07:29.649Z,13.28
2023-04-25T01:08:29.830Z,13.27
2023-04-25T01:09:30.008Z,13.27
2023-04-25T01:10:30.164Z,13.25
2023-04-25T01:11:30.325Z,13.27
2023-04-25T01:12:30.493Z,13.25
2023-04-25T01:13:30.669Z,13.23
2023-04-25T01:14:30.838Z,13.22
2023-04-25T01:15:31.021Z,13.23
2023-04-25T01:16:31.217Z,13.23
2023-04-25T01:17:31.373Z,13.27
2023-04-25T01:18:31.555Z,13.27
2023-04-25T01:19:31.712Z,13.27
2023-04-25T01:20:31.885Z,13.25
2023-04-25T01:21:32.044Z,13.22
2023-04-25T01:22:32.221Z,13.19
2023-04-25T01:23:32.403Z,13.20
2023-04-25T01:24:32.568Z,13.18
2023-04-25T01:25:32.743Z,13.18
2023-04-25T01:26:32.922Z,13.18
2023-04-25T01:27:33.093Z,13.18
2023-04-25T01:28:33.273Z,13.19
2023-04-25T01:29:33.441Z,13.19
2023-04-25T01:30:33.602Z,13.16
2023-04-25T01:31:33.804Z,13.16
2023-04-25T01:32:33.979Z,13.18
2023-04-25T01:33:34.152Z,13.15
2023-04-25T01:34:34.324Z,13.15
2023-04-25T01:35:34.486Z,13.13
2023-04-25T01:36:34.666Z,13.13
2023-04-25T01:37:34.824Z,13.12
2023-04-25T01:38:35.022Z,13.12
2023-04-25T01:39:35.176Z,13.13
2023-04-25T01:40:35.352Z,13.15
2023-04-25T01:41:35.578Z,13.18
2023-04-25T01:42:35.715Z,13.18
2023-04-25T01:43:35.886Z,13.18
2023-04-25T01:44:36.057Z,13.18
2023-04-25T01:45:36.227Z,13.19
2023-04-25T01:46:36.399Z,13.22
2023-04-25T01:47:36.639Z,13.22
2023-04-25T01:48:36.738Z,13.22
2023-04-25T01:49:36.907Z,13.22
2023-04-25T01:50:37.066Z,13.22
2023-04-25T01:51:37.237Z,13.22
2023-04-25T01:52:37.420Z,13.22
2023-04-25T01:53:37.601Z,13.27
2023-04-25T01:54:37.770Z,13.25
2023-04-25T01:55:37.958Z,13.28
2023-04-25T01:56:38.123Z,13.30
2023-04-25T01:57:38.299Z,13.27
2023-04-25T01:58:38.499Z,13.23
2023-04-25T01:59:38.660Z,13.23
2023-04-25T02:00:38.835Z,13.22
2023-04-25T02:01:39.018Z,13.18
2023-04-25T02:02:39.323Z,13.18
2023-04-25T02:03:39.615Z,13.18
2023-04-25T02:04:39.703Z,13.16
2023-04-25T02:05:39.705Z,13.15
2023-04-25T02:06:39.871Z,13.15
2023-04-25T02:07:40.056Z,13.15
2023-04-25T02:08:40.225Z,13.13
2023-04-25T02:09:40.406Z,13.13
2023-04-25T02:10:40.566Z,13.12
2023-04-25T02:11:40.746Z,13.11
2023-04-25T02:12:40.928Z,13.11
2023-04-25T02:13:41.115Z,13.09
2023-04-25T02:14:41.313Z,13.12
2023-04-25T02:15:41.615Z,13.13
2023-04-25T02:16:41.767Z,13.13
2023-04-25T02:17:41.845Z,13.15
2023-04-25T02:18:42.012Z,13.12
2023-04-25T02:19:42.176Z,13.11
2023-04-25T02:20:42.346Z,13.12
2023-04-25T02:21:42.526Z,13.12
2023-04-25T02:22:42.692Z,13.12
2023-04-25T02:23:42.886Z,13.16
2023-04-25T02:24:43.043Z,13.15
2023-04-25T02:25:43.233Z,13.13
2023-04-25T02:26:43.380Z,13.13
2023-04-25T02:27:43.552Z,13.12
2023-04-25T02:28:43.728Z,13.09
2023-04-25T02:29:43.900Z,13.12
2023-04-25T02:30:44.090Z,13.12
2023-04-25T02:31:44.309Z,13.08
2023-04-25T02:32:44.478Z,13.08
2023-04-25T02:33:44.654Z,13.08
2023-04-25T02:34:44.843Z,13.08
2023-04-25T02:35:44.992Z,13.11
2023-04-25T02:36:45.174Z,13.08
2023-04-25T02:37:45.352Z,13.09
2023-04-25T02:38:45.520Z,13.08
2023-04-25T02:39:45.685Z,13.09
2023-04-25T02:40:45.857Z,13.09
2023-04-25T02:41:46.020Z,13.05
2023-04-25T02:42:46.206Z,13.04
2023-04-25T02:43:46.365Z,13.08
2023-04-25T02:44:46.528Z,13.04
2023-04-25T02:45:46.714Z,13.09
2023-04-25T02:46:46.922Z,13.08
2023-04-25T02:47:47.081Z,13.05
2023-04-25T02:48:47.240Z,13.05
2023-04-25T02:49:47.409Z,13.04
2023-04-25T02:50:47.577Z,13.03
2023-04-25T02:51:47.749Z,13.00
2023-04-25T02:52:47.927Z,13.03
2023-04-25T02:53:48.253Z,13.01
2023-04-25T02:54:48.267Z,13.01
2023-04-25T02:55:48.443Z,13.00
2023-04-25T02:56:48.611Z,13.00
2023-04-25T02:57:48.816Z,13.01
2023-04-25T02:58:48.967Z,13.00
2023-04-25T02:59:49.128Z,12.98
2023-04-25T03:00:49.347Z,12.97
2023-04-25T03:01:49.450Z,12.97
2023-04-25T03:02:49.809Z,12.97
2023-04-25T03:03:50.140Z,12.95
2023-04-25T03:04:50.163Z,12.95
2023-04-25T03:05:50.144Z,12.91
2023-04-25T03:06:50.308Z,12.85
2023-04-25T03:07:50.519Z,12.83
2023-04-25T03:08:50.646Z,12.82
2023-04-25T03:09:50.814Z,12.82
2023-04-25T03:10:50.999Z,12.85
2023-04-25T03:11:51.145Z,12.86
2023-04-25T03:12:51.346Z,12.85
2023-04-25T03:13:51.787Z,12.87
2023-04-25T03:14:51.644Z,12.87
2023-04-25T03:15:51.821Z,12.90
2023-04-25T03:16:52.010Z,12.91
2023-04-25T03:17:52.208Z,12.90
2023-04-25T03:18:52.362Z,12.91
2023-04-25T03:19:52.535Z,12.90
2023-04-25T03:20:52.690Z,12.91
2023-04-25T03:21:52.876Z,12.91
2023-04-25T03:22:53.065Z,12.93
2023-04-25T03:23:53.372Z,12.90
2023-04-25T03:24:53.406Z,12.90
2023-04-25T03:25:53.581Z,12.90
2023-04-25T03:26:53.765Z,12.91
2023-04-25T03:27:53.952Z,12.91
2023-04-25T03:28:54.116Z,12.93
2023-04-25T03:29:54.288Z,12.93
2023-04-25T03:30:54.465Z,12.93
2023-04-25T03:31:54.699Z,12.90
2023-04-25T03:32:54.850Z,12.87
2023-04-25T03:33:54.994Z,12.87
2023-04-25T03:34:55.182Z,12.87
2023-04-25T03:35:55.341Z,12.86
2023-04-25T03:36:55.529Z,12.86
2023-04-25T03:37:55.736Z,12.86
2023-04-25T03:38:55.929Z,12.90
2023-04-25T03:39:56.076Z,12.86
2023-04-25T03:40:56.226Z,12.85
2023-04-25T03:41:56.411Z,12.82
2023-04-25T03:42:56.578Z,12.80
2023-04-25T03:43:56.730Z,12.78
2023-04-25T03:44:56.911Z,12.78
2023-04-25T03:45:57.147Z,12.76
2023-04-25T03:46:57.272Z,12.75
2023-04-25T03:47:57.456Z,12.73
2023-04-25T03:48:57.604Z,12.67
2023-04-25T03:49:57.777Z,12.65
2023-04-25T03:50:57.947Z,12.65
2023-04-25T03:51:58.128Z,12.62
2023-04-25T03:52:58.299Z,12.62
2023-04-25T03:53:58.454Z,12.61
2023-04-25T03:54:58.634Z,12.58
2023-04-25T03:55:58.808Z,12.57
2023-04-25T03:56:59.002Z,12.60
2023-04-25T03:57:59.150Z,12.61
2023-04-25T03:58:59.348Z,12.65
2023-04-25T03:59:59.499Z,12.64
2023-04-25T04:00:59.691Z,12.68
2023-04-25T04:01:59.883Z,12.72
2023-04-25T04:03:00.207Z,12.73
2023-04-25T04:04:00.429Z,12.75
2023-04-25T04:05:00.549Z,12.75
2023-04-25T04:06:00.572Z,12.76
2023-04-25T04:07:00.734Z,12.80
2023-04-25T04:08:00.895Z,12.82
2023-04-25T04:09:01.078Z,12.82
2023-04-25T04:10:01.253Z,12.82
2023-04-25T04:11:01.429Z,12.86
2023-04-25T04:12:01.630Z,12.87
2023-04-25T04:13:01.789Z,12.91
2023-04-25T04:14:01.951Z,12.94
2023-04-25T04:15:02.112Z,12.97
2023-04-25T04:16:02.368Z,12.98
2023-04-25T04:17:02.459Z,13.01
2023-04-25T04:18:02.627Z,13.03
2023-04-25T04:19:02.771Z,13.04
2023-04-25T04:20:02.971Z,13.05
2023-04-25T04:21:03.125Z,13.08
2023-04-25T04:22:03.329Z,13.11
2023-04-25T04:23:03.479Z,13.12
2023-04-25T04:24:03.660Z,13.16
2023-04-25T04:25:03.838Z,13.16
2023-04-25T04:26:04.003Z,13.15
2023-04-25T04:27:04.190Z,13.19
2023-04-25T04:28:04.327Z,13.20
2023-04-25T04:29:04.476Z,13.22
2023-04-25T04:30:04.658Z,13.25
2023-04-25T04:31:05.091Z,13.27
2023-04-25T04:32:05.000Z,13.30
2023-04-25T04:33:05.217Z,13.30
2023-04-25T04:34:05.349Z,13.33
2023-04-25T04:35:05.527Z,13.33
2023-04-25T04:36:05.704Z,13.35
2023-04-25T04:37:05.897Z,13.37
2023-04-25T04:38:06.082Z,13.39
2023-04-25T04:39:06.245Z,13.38
2023-04-25T04:40:06.414Z,13.41
2023-04-25T04:41:06.588Z,13.39
2023-04-25T04:42:06.760Z,13.41
2023-04-25T04:43:06.936Z,13.44
2023-04-25T04:44:08.325Z,13.42
2023-04-25T04:45:07.226Z,13.46
2023-04-25T04:46:07.440Z,13.47
2023-04-25T04:47:07.601Z,13.49
2023-04-25T04:48:07.824Z,13.52
2023-04-25T04:49:07.930Z,13.52
2023-04-25T04:50:08.074Z,13.53
2023-04-25T04:51:08.249Z,13.50
2023-04-25T04:52:08.425Z,13.49
2023-04-25T04:53:08.595Z,13.49
2023-04-25T04:54:08.784Z,13.52
2023-04-25T04:55:08.927Z,13.52
2023-04-25T04:56:09.111Z,13.50
2023-04-25T04:57:09.312Z,13.49
2023-04-25T04:58:09.464Z,13.52
2023-04-25T04:59:09.642Z,13.54
2023-04-25T05:00:09.792Z,13.53
2023-04-25T05:01:10.009Z,13.54
2023-04-25T05:02:10.262Z,13.56
2023-04-25T05:03:10.500Z,13.56
2023-04-25T05:04:10.709Z,13.57
2023-04-25T05:05:10.667Z,13.56
2023-04-25T05:06:10.871Z,13.59
2023-04-25T05:07:11.023Z,13.57
2023-04-25T05:08:11.200Z,13.59
2023-04-25T05:09:11.342Z,13.62
2023-04-25T05:10:11.510Z,13.62
2023-04-25T05:11:11.699Z,13.67
2023-04-25T05:12:11.909Z,13.70
2023-04-25T05:13:12.022Z,13.71
2023-04-25T05:14:12.226Z,13.71
2023-04-25T05:15:12.377Z,13.71
2023-04-25T05:16:12.636Z,13.74
2023-04-25T05:17:12.740Z,13.77
2023-04-25T05:18:12.977Z,13.78
2023-04-25T05:19:13.054Z,13.79
2023-04-25T05:20:13.249Z,13.78
2023-04-25T05:21:13.416Z,13.77
2023-04-25T05:22:13.597Z,13.74
2023-04-25T05:23:13.751Z,13.74
2023-04-25T05:24:13.929Z,13.78
2023-04-25T05:25:14.112Z,13.81
2023-04-25T05:26:14.321Z,13.83
2023-04-25T05:27:14.453Z,13.86
2023-04-25T05:28:14.638Z,13.89
2023-04-25T05:29:14.836Z,13.95
2023-04-25T05:30:15.031Z,14.04
2023-04-25T05:31:15.223Z,14.08
2023-04-25T05:32:15.385Z,14.15
2023-04-25T05:33:15.539Z,14.22
2023-04-25T05:34:15.712Z,14.29
2023-04-25T05:35:15.912Z,14.33
2023-04-25T05:36:16.098Z,14.41
2023-04-25T05:37:16.241Z,14.47
2023-04-25T05:38:16.431Z,14.55
2023-04-25T05:39:16.580Z,14.63
2023-04-25T05:40:16.762Z,14.73
2023-04-25T05:41:16.938Z,14.89
2023-04-25T05:42:17.129Z,15.00
2023-04-25T05:43:17.301Z,15.15
2023-04-25T05:44:17.493Z,15.22
2023-04-25T05:45:17.674Z,15.29
2023-04-25T05:46:17.953Z,15.35
2023-04-25T05:47:18.047Z,15.37
2023-04-25T05:48:18.222Z,15.40
2023-04-25T05:49:19.726Z,15.39
2023-04-25T05:50:18.608Z,15.36
2023-04-25T05:51:18.811Z,15.35
2023-04-25T05:52:18.962Z,15.28
2023-04-25T05:53:19.148Z,15.28
2023-04-25T05:54:19.342Z,15.22
2023-04-25T05:55:19.622Z,15.22
2023-04-25T05:56:19.675Z,15.19
2023-04-25T05:57:19.858Z,15.15
2023-04-25T05:58:20.050Z,15.14
2023-04-25T05:59:20.204Z,15.10
2023-04-25T06:00:20.392Z,15.06
2023-04-25T06:01:20.543Z,15.03
2023-04-25T06:02:20.968Z,15.02
2023-04-25T06:03:21.437Z,15.03
2023-04-25T06:04:21.380Z,15.03
2023-04-25T06:05:21.472Z,15.02
2023-04-25T06:06:21.425Z,15.04
2023-04-25T06:07:21.607Z,15.06
2023-04-25T06:08:21.782Z,15.06
2023-04-25T06:09:21.961Z,15.07
2023-04-25T06:10:22.192Z,15.06
2023-04-25T06:11:22.300Z,15.04
2023-04-25T06:12:22.501Z,15.03
2023-04-25T06:13:22.681Z,14.96
2023-04-25T06:14:22.854Z,14.92
2023-04-25T06:15:28.420Z,14.89
2023-04-25T06:16:24.235Z,14.86
2023-04-25T06:17:23.375Z,14.89
2023-04-25T06:18:23.524Z,14.91
2023-04-25T06:19:23.713Z,14.91
2023-04-25T06:20:23.965Z,14.94
2023-04-25T06:21:24.066Z,14.92
2023-04-25T06:22:24.260Z,14.96
2023-04-25T06:23:24.483Z,15.02
2023-04-25T06:24:24.603Z,15.06
2023-04-25T06:25:24.768Z,15.04
2023-04-25T06:26:24.954Z,15.04
2023-04-25T06:27:25.148Z,15.00
2023-04-25T06:28:25.388Z,14.96
2023-04-25T06:29:25.492Z,14.91
2023-04-25T06:30:25.684Z,14.89
2023-04-25T06:31:25.895Z,14.88
2023-04-25T06:32:27.525Z,14.86
2023-04-25T06:33:26.158Z,14.82
2023-04-25T06:34:26.343Z,14.82
2023-04-25T06:35:26.542Z,14.82
2023-04-25T06:36:26.690Z,14.81
2023-04-25T06:37:26.877Z,14.77
2023-04-25T06:38:27.072Z,14.70
2023-04-25T06:39:27.246Z,14.68
2023-04-25T06:40:27.490Z,14.66
2023-04-25T06:41:27.608Z,14.65
2023-04-25T06:42:27.782Z,14.65
2023-04-25T06:43:27.954Z,14.63
2023-04-25T06:44:28.136Z,14.58
2023-04-25T06:45:28.329Z,14.54
2023-04-25T06:46:28.517Z,14.45
2023-04-25T06:47:28.715Z,14.44
2023-04-25T06:48:28.839Z,14.37
2023-04-25T06:49:29.036Z,14.36
2023-04-25T06:50:29.197Z,14.40
2023-04-25T06:51:29.399Z,14.45
2023-04-25T06:52:29.549Z,14.48
2023-04-25T06:53:29.726Z,14.48
2023-04-25T06:54:29.923Z,14.48
2023-04-25T06:55:30.110Z,14.54
2023-04-25T06:56:30.244Z,14.55
2023-04-25T06:57:30.433Z,14.54
2023-04-25T06:58:30.604Z,14.50
2023-04-25T06:59:30.792Z,14.44
2023-04-25T07:00:31.016Z,14.36
2023-04-25T07:01:31.177Z,14.28
2023-04-25T07:02:31.452Z,14.18
2023-04-25T07:03:31.696Z,14.10
2023-04-25T07:04:32.035Z,14.07
2023-04-25T07:05:31.908Z,14.00
2023-04-25T07:06:32.062Z,13.97
2023-04-25T07:07:32.248Z,13.99
2023-04-25T07:08:32.424Z,13.97
2023-04-25T07:09:32.714Z,14.00
2023-04-25T07:10:32.805Z,14.03
2023-04-25T07:11:32.944Z,14.05
2023-04-25T07:12:33.096Z,14.12
2023-04-25T07:13:33.275Z,14.22
2023-04-25T07:14:33.486Z,14.28
2023-04-25T07:15:33.645Z,14.36
2023-04-25T07:16:33.807Z,14.45
2023-04-25T07:17:33.984Z,14.48
2023-04-25T07:18:34.122Z,14.59
2023-04-25T07:19:34.333Z,14.55
2023-04-25T07:20:34.481Z,14.51
2023-04-25T07:21:34.669Z,14.51
2023-04-25T07:22:34.857Z,14.48
2023-04-25T07:23:35.053Z,14.50
2023-04-25T07:24:35.211Z,14.54
2023-04-25T07:25:35.380Z,14.53
2023-04-25T07:26:35.533Z,14.59
2023-04-25T07:27:35.700Z,14.60
2023-04-25T07:28:35.911Z,14.60
2023-04-25T07:29:36.070Z,14.58
2023-04-25T07:30:36.225Z,14.55
2023-04-25T07:31:36.454Z,14.54
2023-04-25T07:32:36.566Z,14.55
2023-04-25T07:33:36.756Z,14.55
2023-04-25T07:34:36.923Z,14.59
2023-04-25T07:35:37.099Z,14.66
2023-04-25T07:36:37.244Z,14.72
2023-04-25T07:37:37.432Z,14.82
2023-04-25T07:38:37.574Z,14.92
2023-04-25T07:39:37.806Z,15.03
2023-04-25T07:40:37.950Z,15.10
2023-04-25T07:41:38.136Z,15.10
2023-04-25T07:42:38.276Z,15.17
2023-04-25T07:43:38.507Z,15.19
2023-04-25T07:44:38.613Z,15.22
2023-04-25T07:45:38.821Z,15.28
2023-04-25T07:46:38.969Z,15.29
2023-04-25T07:47:39.152Z,15.31
2023-04-25T07:48:39.308Z,15.28
2023-04-25T07:49:39.519Z,15.21
2023-04-25T07:50:39.686Z,15.21
2023-04-25T07:51:39.850Z,15.17
2023-04-25T07:52:40.045Z,15.18
2023-04-25T07:53:40.206Z,15.19
2023-04-25T07:54:40.554Z,15.21
2023-04-25T07:55:40.545Z,15.25
2023-04-25T07:56:51.541Z,15.29
2023-04-25T07:57:41.887Z,15.31
2023-04-25T07:58:41.104Z,15.36
2023-04-25T07:59:41.249Z,15.33
2023-04-25T08:00:41.402Z,15.37
2023-04-25T08:01:41.628Z,15.37
2023-04-25T08:02:41.802Z,15.37
2023-04-25T08:03:42.193Z,15.43
2023-04-25T08:04:42.323Z,15.46
2023-04-25T08:05:42.411Z,15.54
2023-04-25T08:06:42.704Z,15.65
2023-04-25T08:07:42.670Z,15.77
2023-04-25T08:08:42.820Z,15.97
2023-04-25T08:09:43.049Z,16.20
2023-04-25T08:10:43.179Z,16.39
2023-04-25T08:11:43.363Z,16.49
2023-04-25T08:12:43.508Z,16.53
2023-04-25T08:13:43.736Z,16.56
2023-04-25T08:14:43.953Z,16.60
2023-04-25T08:15:44.082Z,16.68
2023-04-25T08:16:44.276Z,16.68
2023-04-25T08:17:44.439Z,16.68
2023-04-25T08:18:44.651Z,16.65
2023-04-25T08:19:44.823Z,16.66
2023-04-25T08:20:45.027Z,16.64
2023-04-25T08:21:45.169Z,16.66
2023-04-25T08:22:45.329Z,16.72
2023-04-25T08:23:45.508Z,16.78
2023-04-25T08:24:45.680Z,16.86
2023-04-25T08:25:45.854Z,16.91
2023-04-25T08:26:46.040Z,16.96
2023-04-25T08:27:46.219Z,17.04
2023-04-25T08:28:46.508Z,17.19
2023-04-25T08:29:47.077Z,17.42
2023-04-25T08:30:46.758Z,17.97
2023-04-25T08:31:46.962Z,18.62
2023-04-25T08:32:47.123Z,19.04
2023-04-25T08:33:47.261Z,19.27
2023-04-25T08:34:47.544Z,19.31
2023-04-25T08:35:47.606Z,19.51
2023-04-25T08:36:47.847Z,19.70
2023-04-25T08:37:47.977Z,19.71
2023-04-25T08:38:48.281Z,19.66
2023-04-25T08:39:48.348Z,19.55
2023-04-25T08:40:48.480Z,19.39
2023-04-25T08:41:48.705Z,19.16
2023-04-25T08:42:48.831Z,18.93
2023-04-25T08:43:49.001Z,18.73
2023-04-25T08:44:49.174Z,18.73
2023-04-25T08:45:49.361Z,18.92
2023-04-25T08:46:50.743Z,18.98
2023-04-25T08:47:49.977Z,19.40
2023-04-25T08:48:50.007Z,20.13
2023-04-25T08:49:50.079Z,20.99
2023-04-25T08:50:50.209Z,21.82
2023-04-25T08:51:50.406Z,22.72
2023-04-25T08:52:50.785Z,23.62
2023-04-25T08:53:53.490Z,24.48
2023-04-25T08:54:50.963Z,25.28
2023-04-25T08:55:51.116Z,25.84
2023-04-25T08:56:51.277Z,26.41
2023-04-25T08:57:51.470Z,27.00
2023-04-25T08:58:51.959Z,27.64
2023-04-25T08:59:51.884Z,28.19
2023-04-25T09:00:51.960Z,28.19
2023-04-25T09:01:52.217Z,28.04
2023-04-25T09:02:52.447Z,27.74
2023-04-25T09:03:52.617Z,27.40
2023-04-25T09:04:52.652Z,27.27
2023-04-25T09:05:52.831Z,27.07
2023-04-25T09:06:52.997Z,26.58
2023-04-25T09:07:53.200Z,26.09
2023-04-25T09:08:53.334Z,25.75
2023-04-25T09:09:53.555Z,25.43
2023-04-25T09:10:53.721Z,25.17
2023-04-25T09:11:53.877Z,25.04
2023-04-25T09:12:54.035Z,24.95
2023-04-25T09:13:54.225Z,24.85
2023-04-25T09:14:54.403Z,24.66
2023-04-25T09:15:54.562Z,24.26
2023-04-25T09:16:54.763Z,23.98
2023-04-25T09:17:55.087Z,23.71
2023-04-25T09:18:55.090Z,23.43
2023-04-25T09:19:55.261Z,23.12
2023-04-25T09:21:01.827Z,22.88
2023-04-25T09:21:56.589Z,22.85
2023-04-25T09:22:55.794Z,22.87
2023-04-25T09:23:55.931Z,23.34
2023-04-25T09:24:56.136Z,23.55
2023-04-25T09:25:56.295Z,23.44
2023-04-25T09:26:56.463Z,23.13
2023-04-25T09:27:56.691Z,22.83
2023-04-25T09:28:56.819Z,22.54
2023-04-25T09:29:57.002Z,22.26
2023-04-25T09:30:57.147Z,22.11
2023-04-25T09:31:57.495Z,21.89
2023-04-25T09:32:57.580Z,21.89
2023-04-25T09:33:57.652Z,22.04
2023-04-25T09:34:57.850Z,21.98
2023-04-25T09:35:58.040Z,21.96
2023-04-25T09:36:58.204Z,21.95
2023-04-25T09:37:58.381Z,22.23
2023-04-25T09:38:58.515Z,22.25
2023-04-25T09:39:58.702Z,22.14
2023-04-25T09:40:59.028Z,22.07
2023-04-25T09:41:59.065Z,22.18
2023-04-25T09:42:59.221Z,22.26
2023-04-25T09:43:59.740Z,22.30
2023-04-25T09:44:59.606Z,22.80
2023-04-25T09:45:59.800Z,23.74
2023-04-25T09:46:59.950Z,24.35
2023-04-25T09:48:00.202Z,24.73
2023-04-25T09:49:00.314Z,24.60
2023-04-25T09:50:00.524Z,24.13
2023-04-25T09:51:00.639Z,23.69
2023-04-25T09:52:00.794Z,23.21
2023-04-25T09:53:00.974Z,22.81
2023-04-25T09:54:01.156Z,22.41
2023-04-25T09:55:01.398Z,22.04
2023-04-25T09:56:01.502Z,21.76
2023-04-25T09:57:01.701Z,21.42
2023-04-25T09:58:01.871Z,21.07
2023-04-25T09:59:02.022Z,20.93
2023-04-25T10:00:02.182Z,20.69
2023-04-25T10:01:02.380Z,20.47
2023-04-25T10:02:02.535Z,20.26
2023-04-25T10:03:02.770Z,20.04
2023-04-25T10:04:03.357Z,19.84
2023-04-25T10:05:03.127Z,19.67
2023-04-25T10:06:03.238Z,19.49
2023-04-25T10:07:03.404Z,19.37
2023-04-25T10:08:03.598Z,19.31
2023-04-25T10:09:03.747Z,19.21
2023-04-25T10:10:04.037Z,19.21
2023-04-25T10:11:04.125Z,19.21
2023-04-25T10:12:04.297Z,19.26
2023-04-25T10:13:04.444Z,19.29
2023-04-25T10:14:04.620Z,19.29
2023-04-25T10:15:04.817Z,19.30
2023-04-25T10:16:05.037Z,19.37
2023-04-25T10:17:05.157Z,19.48
2023-04-25T10:18:05.412Z,19.58
2023-04-25T10:19:05.491Z,19.64
2023-04-25T10:20:05.752Z,19.69
2023-04-25T10:21:05.865Z,19.71
2023-04-25T10:22:06.040Z,19.74
2023-04-25T10:23:06.216Z,19.81
2023-04-25T10:24:06.384Z,19.91
2023-04-25T10:25:06.565Z,19.92
2023-04-25T10:26:06.762Z,19.92
2023-04-25T10:27:06.917Z,19.89
2023-04-25T10:28:07.098Z,19.88
2023-04-25T10:29:07.252Z,19.86
2023-04-25T10:30:07.548Z,19.84
2023-04-25T10:31:07.705Z,19.71
2023-04-25T10:32:07.946Z,19.66
2023-04-25T10:33:08.000Z,19.56
2023-04-25T10:34:08.189Z,19.55
2023-04-25T10:35:08.368Z,19.56
2023-04-25T10:36:08.605Z,19.63
2023-04-25T10:37:08.673Z,19.67
2023-04-25T10:38:08.865Z,19.71
2023-04-25T10:39:09.017Z,19.70
2023-04-25T10:40:09.203Z,19.69
2023-04-25T10:41:09.379Z,19.71
2023-04-25T10:42:09.543Z,19.71
2023-04-25T10:43:09.841Z,19.70
2023-04-25T10:44:09.909Z,19.69
2023-04-25T10:45:10.064Z,19.66
2023-04-25T10:46:10.445Z,19.58
2023-04-25T10:47:10.727Z,19.40
2023-04-25T10:48:10.596Z,19.26
2023-04-25T10:49:10.764Z,19.08
2023-04-25T10:50:11.015Z,18.98
2023-04-25T10:51:11.353Z,18.99
2023-04-25T10:52:11.266Z,18.92
2023-04-25T10:53:11.482Z,18.84
2023-04-25T10:54:11.610Z,18.74
2023-04-25T10:55:11.834Z,18.62
2023-04-25T10:56:12.586Z,18.45
2023-04-25T10:57:12.171Z,18.29
2023-04-25T10:58:12.360Z,18.16
2023-04-25T10:59:13.621Z,18.05
2023-04-25T11:00:12.788Z,17.97
2023-04-25T11:01:13.212Z,17.90
2023-04-25T11:02:13.246Z,17.86
2023-04-25T11:03:13.383Z,17.74
2023-04-25T11:04:13.580Z,17.70
2023-04-25T11:05:13.620Z,17.71
2023-04-25T11:06:13.827Z,17.74
2023-04-25T11:07:13.991Z,17.72
2023-04-25T11:08:14.136Z,17.67
2023-04-25T11:09:14.441Z,17.63
2023-04-25T11:10:14.493Z,17.60
2023-04-25T11:11:14.642Z,17.51
2023-04-25T11:12:14.868Z,17.45
2023-04-25T11:13:14.994Z,17.36
2023-04-25T11:14:15.203Z,17.29
2023-04-25T11:15:15.405Z,17.20
2023-04-25T11:17:15.846Z,17.04
2023-04-25T11:18:15.990Z,16.94
2023-04-25T11:19:16.100Z,16.86
2023-04-25T11:20:16.270Z,16.78
2023-04-25T11:21:16.434Z,16.69
2023-04-25T11:22:16.652Z,16.65
2023-04-25T11:23:16.784Z,16.64
2023-04-25T11:24:16.972Z,16.56
2023-04-25T11:25:17.146Z,16.56
2023-04-25T11:26:17.352Z,16.57
2023-04-25T11:27:17.481Z,16.65
2023-04-25T11:28:17.656Z,16.78
2023-04-25T11:29:17.961Z,16.89
2023-04-25T11:30:18.037Z,17.04
2023-04-25T11:31:18.215Z,17.12
2023-04-25T11:32:19.303Z,17.19
2023-04-25T11:33:18.577Z,17.24
2023-04-25T11:34:18.756Z,17.29
2023-04-25T11:35:18.881Z,17.31
2023-04-25T11:36:19.075Z,17.34
2023-04-25T11:37:19.289Z,17.34
2023-04-25T11:38:19.416Z,17.30
2023-04-25T11:39:19.652Z,17.29
2023-04-25T11:40:19.780Z,17.24
2023-04-25T11:41:19.963Z,17.22
2023-04-25T11:42:20.106Z,17.20
2023-04-25T11:43:21.393Z,17.23
2023-04-25T11:44:20.488Z,17.23
2023-04-25T11:45:20.647Z,17.27
2023-04-25T11:46:20.866Z,17.29
2023-04-25T11:47:20.962Z,17.30
2023-04-25T11:48:25.869Z,17.33
2023-04-25T11:49:22.385Z,17.31
2023-04-25T11:50:21.526Z,17.34
2023-04-25T11:51:21.653Z,17.31
2023-04-25T11:52:21.822Z,17.31
2023-04-25T11:53:22.029Z,17.30
2023-04-25T11:54:22.218Z,17.34
2023-04-25T11:55:22.351Z,17.34
2023-04-25T11:56:22.521Z,17.44
2023-04-25T11:57:22.684Z,17.49
2023-04-25T11:58:22.851Z,17.56
2023-04-25T11:59:23.065Z,17.63
2023-04-25T12:00:23.283Z,17.57
2023-04-25T12:01:23.388Z,17.59
2023-04-25T12:02:23.629Z,17.59
2023-04-25T12:03:23.791Z,17.64
2023-04-25T12:04:24.381Z,17.76
2023-04-25T12:06:25.758Z,17.80
2023-04-25T12:07:24.406Z,17.86
2023-04-25T12:08:24.669Z,17.92
2023-04-25T12:09:24.804Z,17.98
2023-04-25T12:10:25.020Z,18.05
2023-04-25T12:11:25.130Z,18.15
2023-04-25T12:12:25.269Z,18.22
2023-04-25T12:13:25.470Z,18.33
2023-04-25T12:14:25.648Z,18.43
2023-04-25T12:15:25.818Z,18.44
2023-04-25T12:16:26.047Z,18.52
2023-04-25T12:17:26.168Z,18.59
2023-04-25T12:18:26.396Z,18.71
2023-04-25T12:19:26.536Z,18.83
2023-04-25T12:20:26.698Z,18.89
2023-04-25T12:21:26.881Z,18.95
2023-04-25T12:22:27.210Z,19.04
2023-04-25T12:23:27.240Z,19.08
2023-04-25T12:24:27.408Z,19.02
2023-04-25T12:25:27.605Z,18.93
2023-04-25T12:26:27.770Z,18.81
2023-04-25T12:27:27.938Z,18.68
2023-04-25T12:28:28.097Z,18.59
2023-04-25T12:29:31.734Z,18.45
2023-04-25T12:30:29.428Z,18.29
2023-04-25T12:31:28.623Z,18.13
2023-04-25T12:32:28.782Z,17.86
2023-04-25T12:33:28.935Z,17.76
2023-04-25T12:34:29.097Z,17.70
2023-04-25T12:35:29.297Z,17.63
2023-04-25T12:36:29.475Z,17.46
2023-04-25T12:37:29.642Z,17.34
2023-04-25T12:38:29.764Z,17.31
2023-04-25T12:39:29.957Z,17.29
2023-04-25T12:40:30.082Z,17.29
2023-04-25T12:41:30.270Z,17.33
2023-04-25T12:42:30.426Z,17.44
2023-04-25T12:43:30.618Z,17.49
2023-04-25T12:44:30.791Z,17.49
2023-04-25T12:45:30.980Z,17.57
2023-04-25T12:46:31.212Z,17.57
2023-04-25T12:47:31.410Z,17.59
2023-04-25T12:48:31.504Z,17.63
2023-04-25T12:49:31.681Z,17.70
2023-04-25T12:50:31.919Z,17.79
2023-04-25T12:51:32.047Z,17.90
2023-04-25T12:52:32.211Z,18.01
2023-04-25T12:53:33.926Z,18.07
2023-04-25T12:54:32.584Z,18.08
2023-04-25T12:55:32.778Z,18.11
2023-04-25T12:56:32.936Z,18.05